Allendale, California
Current Conditions -  °F | °C
As of 10:53 PM on Friday 31 Oct 2014 (Local Time) from KVCB Reporting Station
Haze Haze  
Wind Chill: 57°   Ceiling: 800
Heat Index: 57°   Visibility: 6mi
Dew Point: 54°   Wind: 0mph
Humidity: 89%   Direction: NA
Pressure: 29.73"   Gusts: NA
Location:  38.4195°N, 122.026°W
Report Text: KVCB 010553Z AUTO 00000KT 6SM BR OVC008 14/12 A2973 RMK AO2 CIG 005V012 SLP066 T01390122 10144 20133 56005 TSNO
Loading
Personal Weather Stations






























Interactive Weather Map
Tropical Storm Tracking
New forecast layout! Learn more

10-Day Weather Forecast

Advertisements
Track Severe Weather on mobile